»·PEaware :: N112LV CYXX-KPDX

N112LV :: CYXX-KPDX

FLIGHT INFORMATION

Flight Status: Arrived
Operator: Privately registered:
United States
More flights under this callsign
Pilot: Leighton M. (11234)
Aircraft: PILATUS PC-12 EAGLE
(PC12)
More flights by this aircraft type
Origin: CYXX Abbotsford
Canada
Destination: KPDX Portland Intl
United States
More flights between these airports :: More routes between these airports
Route: ACORD V23 SEA V495 BTG
File this flight plan on PilotEdge
Remarks:
Altitude:
(Current/Filed)
21,000ft
Speed:
(Current/Filed)
250kts
Departed: 31-Dec-16 03:43 PM
Arrived: 31-Dec-16 04:48 PM
Distance/Time
Traveled:
207nm/1:05
Distance/Time
To Go:
Arrived

Flight Plot

Page will automatically refresh every two minutes.

Flight plan parsing failed; only flown route is shown


Map Options




Map Legend


Flown Route
Filed Route
Departure Airport
Arrival Airport
Navaid (VOR, NDB)
Fix

Horizontal Profiles

Position Reports

Time Latitude Longitude Heading Altitude Ground
Speed
31-Dec-16 15:22 49.026762 -122.362768 237 192ft 0kts
31-Dec-16 15:23 49.026762 -122.362768 237 192ft 0kts
31-Dec-16 15:24 49.026762 -122.362768 237 192ft 0kts
31-Dec-16 15:25 49.026762 -122.362768 237 192ft 0kts
31-Dec-16 15:26 49.026762 -122.362768 237 192ft 0kts
31-Dec-16 15:27 49.026762 -122.362768 237 192ft 0kts
31-Dec-16 15:28 49.026762 -122.362768 237 192ft 0kts
31-Dec-16 15:29 49.026762 -122.362768 237 192ft 0kts
31-Dec-16 15:30 49.026762 -122.362768 237 192ft 0kts
31-Dec-16 15:31 49.026762 -122.362768 237 192ft 0kts
31-Dec-16 15:32 49.026762 -122.362768 237 192ft 0kts
31-Dec-16 15:33 49.026762 -122.362768 237 192ft 0kts
31-Dec-16 15:34 49.026762 -122.362768 237 192ft 0kts
31-Dec-16 15:35 49.026517 -122.363313 264 192ft 7kts
31-Dec-16 15:36 49.029297 -122.366709 325 192ft 24kts
31-Dec-16 15:37 49.030592 -122.368112 324 192ft 0kts
31-Dec-16 15:38 49.030592 -122.368112 324 192ft 0kts
31-Dec-16 15:39 49.030592 -122.368112 324 192ft 0kts
31-Dec-16 15:40 49.030592 -122.368112 324 192ft 0kts
31-Dec-16 15:41 49.030592 -122.368112 324 192ft 0kts
31-Dec-16 15:42 49.031357 -122.369142 273 192ft 9kts
31-Dec-16 15:43 49.023748 -122.375015 205 202ft 107kts
31-Dec-16 15:44 48.995205 -122.392179 202 995ft 139kts
31-Dec-16 15:45 48.965767 -122.424592 225 1847ft 125kts
31-Dec-16 15:46 48.942375 -122.472632 224 2889ft 167kts
31-Dec-16 15:47 48.897375 -122.478606 176 3934ft 181kts
31-Dec-16 15:48 48.849321 -122.494673 198 4993ft 193kts
31-Dec-16 15:49 48.801463 -122.526534 202 6013ft 201kts
31-Dec-16 15:50 48.756657 -122.528100 170 6786ft 199kts
31-Dec-16 15:51 48.693628 -122.517267 171 7964ft 207kts
31-Dec-16 15:52 48.637429 -122.507749 172 8977ft 213kts
31-Dec-16 15:53 48.589494 -122.499680 172 9774ft 219kts
31-Dec-16 15:54 48.530951 -122.483108 167 10690ft 223kts
31-Dec-16 15:55 48.462473 -122.460019 168 11684ft 228kts
31-Dec-16 15:56 48.402938 -122.440020 168 12468ft 232kts
31-Dec-16 15:57 48.352539 -122.423117 168 13072ft 235kts
31-Dec-16 15:58 48.292436 -122.402942 168 13739ft 240kts
31-Dec-16 15:59 48.229823 -122.381970 168 14377ft 244kts
31-Dec-16 16:00 48.167456 -122.360477 167 14980ft 247kts
31-Dec-16 16:01 48.092609 -122.335412 167 15741ft 252kts
31-Dec-16 16:02 48.035285 -122.316687 164 16430ft 256kts
31-Dec-16 16:03 47.969881 -122.294723 164 17173ft 260kts
31-Dec-16 16:04 47.916454 -122.278353 176 17743ft 266kts
31-Dec-16 16:05 47.843143 -122.283197 181 18424ft 270kts
31-Dec-16 16:06 47.776461 -122.287740 181 18995ft 274kts
31-Dec-16 16:07 47.720276 -122.291436 181 19440ft 276kts
31-Dec-16 16:08 47.649387 -122.296072 181 19967ft 280kts
31-Dec-16 16:09 47.563665 -122.301561 181 20546ft 283kts
31-Dec-16 16:10 47.488636 -122.306470 181 21007ft 286kts
31-Dec-16 16:11 47.412733 -122.313669 185 21104ft 299kts
31-Dec-16 16:12 47.347768 -122.325021 186 21100ft 304kts
31-Dec-16 16:13 47.271137 -122.338221 185 21097ft 307kts
31-Dec-16 16:14 47.178809 -122.354025 185 21093ft 308kts
31-Dec-16 16:15 47.111669 -122.365482 186 21093ft 308kts
31-Dec-16 16:16 47.029393 -122.379490 185 21093ft 308kts
31-Dec-16 16:17 46.947086 -122.393491 185 21085ft 308kts
31-Dec-16 16:18 46.868458 -122.406782 185 21068ft 306kts
31-Dec-16 16:19 46.785767 -122.420686 185 21061ft 304kts
31-Dec-16 16:20 46.702524 -122.434679 185 21065ft 303kts
31-Dec-16 16:21 46.619828 -122.448056 186 20570ft 317kts
31-Dec-16 16:22 46.533645 -122.462915 185 19601ft 318kts
31-Dec-16 16:23 46.448327 -122.477136 185 18666ft 314kts
31-Dec-16 16:24 46.364897 -122.490999 186 17764ft 309kts
31-Dec-16 16:25 46.283882 -122.504409 186 16883ft 303kts
31-Dec-16 16:26 46.207509 -122.517016 186 16053ft 299kts
31-Dec-16 16:27 46.129703 -122.529824 186 15212ft 295kts
31-Dec-16 16:28 46.055164 -122.542101 186 15165ft 275kts
31-Dec-16 16:29 45.981749 -122.554124 186 15118ft 270kts
31-Dec-16 16:30 45.911898 -122.565523 186 15121ft 263kts
31-Dec-16 16:31 45.847761 -122.575965 186 15119ft 257kts
31-Dec-16 16:32 45.781668 -122.586436 187 14990ft 255kts
31-Dec-16 16:33 45.725296 -122.592958 180 14563ft 247kts
31-Dec-16 16:34 45.667851 -122.612647 212 12056ft 286kts
31-Dec-16 16:35 45.655980 -122.692215 294 10714ft 251kts
31-Dec-16 16:36 45.693547 -122.764014 315 9280ft 233kts
31-Dec-16 16:37 45.733347 -122.826981 315 7889ft 226kts
31-Dec-16 16:38 45.773073 -122.889306 300 6516ft 222kts
31-Dec-16 16:39 45.743433 -122.934799 169 5168ft 181kts
31-Dec-16 16:40 45.707737 -122.899714 145 4517ft 155kts
31-Dec-16 16:41 45.683045 -122.848467 120 4078ft 183kts
31-Dec-16 16:42 45.658689 -122.785885 116 2840ft 210kts
31-Dec-16 16:43 45.640193 -122.737942 116 1931ft 134kts
31-Dec-16 16:44 45.624832 -122.698044 116 1272ft 109kts
31-Dec-16 16:45 45.614072 -122.670323 117 827ft 97kts
31-Dec-16 16:46 45.603712 -122.643583 117 414ft 94kts
31-Dec-16 16:47 45.594064 -122.618721 118 28ft 74kts
31-Dec-16 16:48 45.591854 -122.613137 111 28ft 0kts
31-Dec-16 16:49 45.591566 -122.612443 118 28ft 28kts
31-Dec-16 16:50 45.588311 -122.606014 245 28ft 22kts
31-Dec-16 16:51 45.585954 -122.606314 86 28ft 0kts
31-Dec-16 16:52 45.585954 -122.606314 86 28ft 0kts
31-Dec-16 16:53 45.585954 -122.606314 86 28ft 0kts
31-Dec-16 16:54 45.585954 -122.606314 86 28ft 0kts

Navigation Log

Ident Type
Flight plan parsing failed, navigation log unavailable